Racecast

Sheridan Wheeler

Iowa State (IA) · Jr · NY DA2 DAALBANY · Compare head to head

Athlete rating 138.0 2023 TF season
Best race 156.5 XC
Races 152
Seasons 11 2016 — 2026

RankedNation #205·NY #16·NY DA #9·2 #5·2 DA #8·Team #5 ?

Rating scale ?

Cross Country

2024 XC

Iowa State (IA) · Grade SO-2

Date Meet Event Result Place Rating Difficulty PR/SR Flags
2024-11-15 Newman Golf Course 6000m 20:57.7 55th · 5th on team -0.087 ★CR SR CSR
2024-11-01 Cottonwood Creek Golf Course 6000m 21:10 50th · 5th on team -0.059 ★CR SR CSR
2024-10-19 Zimmer Championship Cross Country Course 6000m 21:20.1 193rd · 5th on team -0.071 ★CR SR CSR
2024-09-27 Thomas Zimmer Championship Course 6000m 22:00.1 154th · 5th on team -0.071 SR CSR

2023 XC

Iowa State (IA) · Grade FR-1

Date Meet Event Result Place Rating Difficulty PR/SR Flags
2023-11-18 Panorama Farms 6000m 21:19.4 183rd · 7th on team -0.069 ★CR CSR
2023-11-10 Greiner Family OSU Cross Country Course 6000m 21:33.8 40th · 6th on team -0.053 ★CR CSR
2023-10-28 Iowa State University 6000m 20:36.6 24th · 5th on team -0.065 ★PR ★CR SR CSR
2023-10-13 Thomas Zimmer Championship Course 6000m 21:59.9 18th · 1st on team -0.071 PR ★CR SR CSR
2023-09-16 Mahoney Park 5000m 17:35.5 8th · 2nd on team -0.081 ★CR CSR
2023-09-01 Iowa State Cross Country Course 5000m 17:12.7 13th · 12th on team -0.044 ★PR ★CR SR CSR

2022 XC 140.8

Saratoga Springs (NY) · Grade 12

Date Meet Event Result Place Rating Difficulty PR/SR Flags
2022-12-03 Glendoveer Golf Course 5000m 18:06.5 46th · 4th on team 148.4 +0.031 ★CR CSR RSR
2022-11-26 Bowdoin Park 5000m 18:30.5 3rd · 2nd on team 143.8 +0.018
2022-11-19 Bowdoin Park 5000m 18:24.9 4th · 2nd on team 144.1 +0.018 ★CR CSR RSR
2022-11-12 Vernon Verona-Sherrill HS 5000m 18:38.9 5th · 2nd on team 141.2 +0.003 ★CR CSR RSR
2022-11-05 Queensbury HS 5000m 18:09.8 2nd · 2nd on team 138.1 -0.046 ★CR CSR RSR
2022-10-29 Saratoga Spa Park 5000m 17:20.1 2nd · 2nd on team 136.8 -0.087 PR ★CR SR CSR
2022-10-15 Saratoga State Park 4828m 17:50.9 3rd · 2nd on team 136.6 -0.037 ★CR SR CSR
2022-09-10 Vernon Verona-Sherrill HS 5000m 19:28.8 4th · 3rd on team 137.3 +0.003 CR SR CSR RSR

2021 XC 138.1

Saratoga Springs (NY) · Grade 11

Date Meet Event Result Place Rating Difficulty PR/SR Flags
2021-11-27 Bowdoin Park 5000m 18:35.8 4th · 4th on team 145.1 +0.018 CR CSR RSR
2021-11-20 Bowdoin Park 5000m 18:37.6 9th · 4th on team 143.1 +0.018 CR CSR RSR
2021-11-13 Chenango Valley State Park 5000m 18:15.6 10th · 4th on team 140.7 -0.025 ★CR SR CSR RSR
2021-11-05 Saratoga Spa Park 4828m 17:34 5th · 5th on team 138.6 -0.037 SR CSR RSR
2021-10-30 Saratoga Spa Park 4828m 17:57.1 5th · 5th on team 136.6 -0.037 SR CSR
2021-10-16 Saratoga Spa Park 4828m 18:15.8 5th · 5th on team 135.3 -0.037 SR CSR
2021-10-12 Saratoga Spa Park 4828m 18:26 4th · 4th on team 133.6 -0.037 SR CSR
2021-10-02 Tawasentha Park 4586m 17:12 3rd · 3rd on team 137.0 -0.018 ★PR ★CR SR CSR RSR
2021-09-18 Queensbury HS 5000m 18:37.5 2nd · 2nd on team 134.3 -0.046 CR SR CSR
2021-09-11 New Scotland Town Park 5000m 19:02.7 3rd · 3rd on team 137.0 -0.013 ★CR SR CSR RSR

2020 XC 136.5

Saratoga Springs (NY) · Grade 10

Date Meet Event Result Place Rating Difficulty PR/SR Flags
2020-11-22 Saratoga Spa Park 5000m 17:40.1 3rd · 3rd on team 135.3 -0.087 PR CR SR CSR
2020-10-27 Unknown 4023m 14:45.7 2nd · 2nd on team 140.5 ★PR ★CR SR CSR RSR
2020-10-19 Saratoga Spa Park 4828m 17:57 3rd · 3rd on team 135.4 -0.037 SR CSR
2020-10-10 Saratoga Spa Park 5000m 18:24.1 5th · 5th on team 132.1 -0.087 PR CR SR CSR
2020-10-05 JFK SportsComplex 5000m 18:28 4th · 4th on team 139.4 -0.022 PR ★CR SR CSR RSR

2019 XC 137.8

Saratoga Springs (NY) · Grade 9

Date Meet Event Result Place Rating Difficulty PR/SR Flags
2019-12-07 Glendoveer Golf Course 5000m 18:28.2 39th · 4th on team 144.9 +0.031 PR CR SR CSR RSR
2019-11-30 Bowdoin Park 5000m 18:47 11th · 3rd on team 140.7 +0.018 PR CR SR CSR RSR
2019-11-23 Bowdoin Park 5000m 19:00.3 13th · 3rd on team 139.0 +0.018 PR CR SR CSR RSR
2019-11-16 Plattsburgh State Fieldhouse 4828m 16:57.9 11th · 2nd on team 136.9 ★PR ★CR SR CSR
2019-11-04 Saratoga Spa Park 4828m 17:25 3rd · 2nd on team 138.8 -0.037 PR ★CR SR CSR RSR
2019-10-12 Saratoga Spa Park 4892m 18:04.5 3rd · 2nd on team 132.3 -0.058 ★PR ★CR SR CSR RSR
2019-08-31 Murray Athletic Center 4023m 15:20.8 5th · 3rd on team 131.9 -0.017 PR ★CR SR CSR RSR

2018 XC 142.6

Saratoga Springs (NY) · Grade 8

Date Meet Event Result Place Rating Difficulty PR/SR Flags
2018-11-24 Bowdoin Park 5000m 19:50.8 37th · 5th on team 151.8 +0.018 CR SR CSR RSR
2018-11-02 Saratoga Spa Park 4892m 19:18.7 31st · 8th on team 143.0 -0.058 PR CR SR CSR RSR
2018-10-19 Saratoga Spa Park 4828m 19:46 10th · 8th on team 140.1 -0.037 PR CR SR CSR
2018-10-06 WakeMed Soccer Park 5000m 21:00.4 5th · 3rd on team 137.8 -0.023 CSR
2018-08-25 Great Meadow Park 5000m 20:59 28th · 8th on team 140.2 -0.013 ★CR SR CSR RSR

2017 XC 141.8

Saratoga Springs (NY) · Grade 7

Date Meet Event Result Place Rating Difficulty PR/SR Flags
2017-12-02 Glendoveer Golf Course 5000m 19:31.5 107th · 2nd on team 156.5 +0.031 PR CR ★R SR CSR RSR
2017-11-25 Bowdoin Park 5000m 20:39.3 58th · 5th on team 146.5 +0.018
2017-11-19 Smithfield High School 3000m 11:20.4 10th · 2nd on team 143.8 -0.044 ★PR ★CR SR CSR
2017-11-18 Bowdoin Park 5000m 20:26.3 90th · 7th on team 147.2 +0.018 CR R CSR RSR
2017-11-04 Saratoga Spa Park 2655m 12:02.3 2nd · 2nd on team 123.8 +0.104 ★PR ★CR SR CSR
2017-11-02 Saratoga State Park 4908m 19:36.2 41st · 8th on team 140.5 -0.054 ★PR ★CR SR CSR
2017-10-20 Saratoga Spa Park 5000m 19:46.9 7th · 4th on team 137.5 -0.087 PR CR SR CSR
2017-10-14 Saratoga Spa Park 3000m 12:01.6 2nd · 2nd on team 142.9 +0.007 PR ★CR R SR CSR RSR
2017-10-07 WakeMed Soccer Park 5000m 20:28.1 2nd · 2nd on team 142.3 -0.023 PR ★CR R SR CSR RSR
2017-09-08 Colonie Town Park 2413m 9:58.2 10th · 3rd on team 137.4 +0.018 ★PR ★CR R SR CSR RSR

2016 XC 118.2

Kinetic Running (NY) · Grade 6

Date Meet Event Result Place Rating Difficulty PR/SR Flags
2016-11-20 Saratoga State Park 3000m 14:30 105th · 5th on team 118.2 +0.005 PR ★CR R SR CSR RSR

Track & Field

2026 TF

Iowa State (IA) · Grade Jr

Date Meet Event Result Place Rating Difficulty PR/SR Flags
2026-05-08 Cyclone Twilight 2026 3ksteeple 10:58.91 1st · 1st on team -0.023 SR

2025 TF

Iowa State (IA) · Grade So

Date Meet Event Result Place Rating Difficulty PR/SR Flags
2025-05-15 Big 12 Outdoor Championships 3ksteeple 10:32.1 11th · 2nd on team -0.030
2025-04-23 2025 Drake Relays 3ksteeple 10:21.67 3rd · 2nd on team -0.045
2025-03-29 Raleigh Relays 3ksteeple 10:14.27 7th · 1st on team -0.039 ★PR SR
2025-02-28 Big 12 Indoor Championships 3000m 9:42.19 19th · 3rd on team -0.033
2025-02-28 Big 12 Indoor Championships 1000m 2:51.62 14th · 3rd on team -0.033
2025-02-14 Tyson Invitational 1mile 4:47.29 14th · 2nd on team -0.049
2025-02-14 Tyson Invitational 3000m 9:31.31 6th · 1st on team -0.049 ★PR SR
2025-02-08 Iowa State Classic 1mile 4:46.06 3rd · 3rd on team -0.041 ★PR SR
2024-12-13 ISU Holiday Invitational 3000m 9:53.76 4th · 2nd on team -0.041 SR
2024-12-13 ISU Holiday Invitational 1000m 2:50.56 2nd · 2nd on team -0.041 ★PR SR

2023 TF 136.5

Kinetic Running (NY) · Grade 12

Date Meet Event Result Place Rating Difficulty PR/SR Flags
2023-06-18 New Balance Nationals Outdoor 2ksteeple 6:20.8 2nd · 1st on team -0.049 ★PR SR
2023-06-10 NYSPHSAA - NY State Championships 2ksteeple 6:22.13 3rd · 1st on team -0.066 PR SR
2023-06-03 Section 2 State Qualifier 2ksteeple 6:34.24 1st · 1st on team -0.039
2023-05-24 Section 2 Group 1 Championships 400mh 1:04.57 1st · 1st on team -0.041 ★PR SR
2023-05-24 Section 2 Group 1 Championships 2ksteeple 6:38.05 1st · 1st on team -0.041
2023-05-24 Section 2 Group 1 Championships 3000m 10:00.67 2nd · 2nd on team 135.5 -0.041
2023-05-20 80th Annual Eddy Meet 1500m 4:33.73 1st · 1st on team 136.9 -0.046 ★PR SR
2023-05-17 Girls Suburban Council Championships 400mh 1:08.54 3rd · 2nd on team -0.045
2023-05-17 Girls Suburban Council Championships 2ksteeple 6:50.45 1st · 1st on team -0.045
2023-05-17 Girls Suburban Council Championships 1500m 4:40.23 2nd · 2nd on team 134.3 -0.045 SR
2023-05-13 Glenn D. Loucks Games 2023 2ksteeple 6:27.8 2nd · 1st on team -0.058 PR SR
2023-04-22 Niskayuna Warrior Track and Field Classic 2023 2ksteeple 6:50.14 1st · 1st on team -0.041 SR
2023-04-18 Guilderland Girls Triangular Meet 400mh 1:04.98 1st · 1st on team -0.024 PR SR
2023-03-04 NYSPHSAA Indoor State Championships 3000m 9:37.67 3rd · 2nd on team 141.9 -0.053 PR SR RSR
2023-02-17 Garden State Invitational 1600m 4:52.85 3rd · 2nd on team 137.0 -0.053 ★PR SR
2023-02-05 Section 2 State Qualifier 3000m 9:59.58 2nd · 2nd on team 139.4 -0.016 SR RSR
2023-01-29 Section 2 Division I Championship 1500m 4:50.27 4th · 3rd on team 133.1 -0.037 SR
2023-01-29 Section 2 Division I Championship 3000m 10:12.33 1st · 1st on team 135.5 -0.037 SR RSR
2022-12-27 MSTCA Boston Holiday Challenge 1mile 5:02.86 3rd · 3rd on team 134.5 -0.049 SR RSR

2022 TF 134.7

Saratoga Springs (NY) · Grade 11

Date Meet Event Result Place Rating Difficulty PR/SR Flags
2022-06-11 NYSPHSAA Outdoor Track & Field Championships 2ksteeple 6:39.92 3rd · 1st on team -0.043 PR SR
2022-06-03 Section 2 State Qualifier 2ksteeple 6:53.86 1st · 1st on team -0.039
2022-05-25 Section 2 Group 1 2ksteeple 7:06.13 1st · 1st on team -0.041
2022-05-25 Section 2 Group 1 400mh 1:07.67 3rd · 1st on team -0.041
2022-05-18 Girls Suburban Council Championships 400mh 1:06.72 1st · 1st on team -0.053 PR SR
2022-05-18 Girls Suburban Council Championships 2ksteeple 6:59.07 1st · 1st on team -0.053
2022-05-14 Glen Loucks Games 2ksteeple 6:49.71 1st · 1st on team -0.057 PR SR
2022-05-11 Shaker vs Saratoga and Bethlehem 3000m 10:39.06 3rd · 1st on team 130.7 -0.025
2022-05-11 Shaker vs Saratoga and Bethlehem 400mh 1:10.66 2nd · 1st on team -0.025 PR SR
2022-04-28 Penn Relays - HS Day 1 3000m 9:59.26 11th · 1st on team 136.2 -0.049
2022-04-22 New York Relays 2ksteeple 6:53.12 1st · 1st on team -0.050 PR SR
2022-03-05 NYSPHSAA/NYS Federation Indoor Championships 3000m 9:48.34 2nd · 1st on team 139.9 -0.053 PR SR RSR
2022-02-26 Ocean Breeze Elite HS Invitational 1mile 4:56.49 1st · 1st on team 136.8 -0.053 PR SR
2022-02-26 Ocean Breeze Elite HS Invitational 1500m 4:39.54 2nd · 2nd on team 133.8 -0.053 PR SR
2022-01-29 Section 2 Division I Championship 3000m 10:19.75 2nd · 2nd on team 134.5 -0.037 RSR
2022-01-29 Section 2 Division I Championship 1500m 4:41.82 2nd · 2nd on team 137.6 -0.037 PR SR RSR
2022-01-15 Section 2 League Meets 6 1000m 3:10.1 1st · 1st on team 128.6 -0.037 SR
2022-01-15 Section 2 League Meets 6 600m 1:47 3rd · 3rd on team -0.037 ★PR SR
2021-12-27 Boston Holiday Challenge 1mile 5:04.81 1st · 1st on team 134.3 -0.049 SR RSR
2021-12-27 MSTCA Boston Holiday Classic 1mile 5:04.81 1st · 1st on team 134.3 -0.049
2021-12-18 Race results → 3000m 10:06.69 2nd · 1st on team SR

2021 TF 132.9

Saratoga Springs (NY) · Grade 10

Date Meet Event Result Place Rating Difficulty PR/SR Flags
2021-07-03 The Outdoor Nationals Presented by Nike 2ksteeple 7:10.93 8th · 1st on team -0.039
2021-06-19 New York State Showcase 2ksteeple 7:24.87 9th · 2nd on team -0.047
2021-06-05 Section 2 Group Pent/Steeple 2ksteeple 7:11.33 1st · 1st on team -0.039
2021-04-18 Athletics Westchester Open Meet #5 1mile 5:03.01 6th · 4th on team 134.4 -0.048 PR SR RSR
2021-04-18 Athletics Westchester Open Meet #5 1500m 4:44.2 7th · 4th on team 132.3 -0.048 PR SR
2021-03-28 NSAF Meet of Champions 2ksteeple 6:57.41 1st · 1st on team -0.037 PR SR
2021-03-13 Ocean Breeze Elite Invitational 3000m 10:23.14 4th · 3rd on team 133.2 -0.053 SR
2021-02-28 adidas Indoor Nationals 1mile 5:08.5 4th · 1st on team 133.6 -0.042 PR SR RSR
2021-02-28 adidas Indoor Nationals 1500m 4:50.12 6th · 1st on team 131.1 -0.042 SR

2020 TF 135.0

Saratoga Springs (NY) · Grade 9

Date Meet Event Result Place Rating Difficulty PR/SR Flags
2020-02-23 Section 2 State Qualifier 3000m 10:04.28 3rd · 2nd on team 140.3 -0.010 RSR
2020-02-16 Section 2 Championship - Division 1 3000m 10:22.42 2nd · 2nd on team 136.2 -0.010
2020-02-16 Section 2 Championship - Division 1 1500m 4:48.1 3rd · 3rd on team 136.3 -0.010 PR SR
2020-02-09 Suburban Council Championships 3000m 10:32.89 4th · 3rd on team 134.0 -0.010
2020-01-18 25th New Balance Games 1609msteeple 5:28.73 1st · 1st on team -0.050 ★PR SR
2020-01-04 Ocean Breeze Freedom Games 1000m 3:04.53 12th · 2nd on team 127.7 -0.053 PR SR
2020-01-04 Ocean Breeze Freedom Games 3000m 9:59.71 3rd · 3rd on team 137.9 -0.053 PR SR RSR
2019-12-27 Holiday Challenge 1mile 5:08.93 2nd · 2nd on team 132.8 -0.049 PR SR RSR

2019 TF 140.2

Kinetic Running (NY) · Grade 8

Date Meet Event Result Place Rating Difficulty PR/SR Flags
2019-06-16 2019 New Balance Nationals Outdoor 2miles 11:08.24 2nd · 2nd on team 143.9 -0.046 ★PR SR
2019-06-16 2019 New Balance Nationals Outdoor 3000m 10:24.35 2nd · 2nd on team 142.6 -0.046 PR SR
2019-05-17 Section 2 Suburban Council Girls JV Championships 3000m 10:54.54 1st · 1st on team 137.2 -0.038
2019-05-17 Section 2 Suburban Council Girls JV Championships 1500m 4:57.49 1st · 1st on team 138.9 -0.038 PR SR
2019-04-20 New York Relays 3000m 10:45.94 11th · 6th on team 137.9 -0.050
2019-02-24 Section 2 State Qualifier 1500m 4:57.53 7th · 3rd on team 142.8 -0.010 PR SR
2019-02-18 Section 2 Division 1 Championships 3000m 10:38.42 3rd · 3rd on team 144.4 -0.010
2019-02-03 Section 2 Suburban Council Championships 3000m 10:37.44 4th · 3rd on team 144.6 -0.010 SR RSR
2019-01-25 Utica Challenge Invitational 1500m 4:59.32 5th · 2nd on team 138.4 -0.046 PR SR
2019-01-06 TCITL Springfield Invitational 3000m 10:41.68 2nd · 2nd on team 140.2 -0.042 SR RSR
2019-01-06 NY Section 2 Springfield College Invite 3000m 10:41.68 2nd · 2nd on team 140.2 -0.042
2018-12-27 Tri Country Indoor Track League #4D 3000m 11:03.7 4th · 4th on team 137.2 -0.037 SR RSR
2018-12-15 Tri County Indoor Track League 2B 1500m 5:13.6 4th · 3rd on team 134.6 -0.016 SR RSR

2018 TF 137.1

Saratoga Springs (NY) · Grade 7

Date Meet Event Result Place Rating Difficulty PR/SR Flags
2018-06-01 NYSPHSAA Section 2 Qualifier 3000m 10:46.81 12th · 5th on team 138.5 -0.039
2018-05-19 Eddy Meet 3000m 10:29.56 8th · 5th on team 141.4 -0.046 PR SR RSR
2018-05-19 The Eddy Meet 3000m 10:29.56 8th · 5th on team 141.4 -0.046
2018-05-16 Girls Varsity Suburban Championships 3000m 10:42.81 8th · 4th on team 137.8 -0.053 PR SR
2018-05-12 Glenn Loucks Games 3200m 11:21.02 11th · 5th on team 138.4 -0.053 ★PR SR
2018-04-21 New York Relays 3000m 10:45.63 15th · 6th on team 137.2 -0.050 PR SR
2018-03-11 New Balance Nationals Indoor 1mile 5:28.53 16th · 3rd on team 134.8 -0.050 PR SR
2018-02-25 Section 2 State Qualifier 1500m 5:24.24 13th · 6th on team 130.9 -0.010
2018-02-25 Section 2 State Qualifier 3000m 10:59.35 10th · 5th on team 139.9 -0.010 PR SR RSR
2018-02-04 Last Chance Invite 1500m 5:05.09 2nd · 2nd on team 136.2 -0.042 PR SR
2018-01-28 Section 2 Suburban Council Girls Championships 3000m 10:59.94 4th · 3rd on team 138.0 -0.037 PR SR
2018-01-20 New Balance Games 2miles 12:06.78 18th · 5th on team 134.5 -0.050 PR SR
2017-12-27 Boston Holiday Challenge 1mile 5:34.88 3rd · 2nd on team 132.0 -0.049 PR SR
2017-12-18 Section 2 League Meet 4B 1500m 5:06 5th · 5th on team 137.6 -0.016 PR SR
2017-12-10 Section 2 League 3A Meet 3000m 11:02.4 3rd · 3rd on team 138.4 -0.016 PR SR RSR